Time;durP1;ratioP1;P1;durP2;ratioP2;P2;SDS_P1;SDS_P2;PMS_P1;PMS_P2;Temp;Humidity;BMP_temperature;BMP_pressure;BME280_temperature;BME280_humidity;BME280_pressure;Samples;Min_cycle;Max_cycle;Signal;HPM_P1;HPM_P2
2023/05/08 00:00:18;;;;;;;19.37;7.33;;;;;;;15.21;66.67;95329.22;5028327;28;20230;-87
2023/05/08 00:02:44;;;;;;;19.57;7.50;;;;;;;15.23;66.17;95329.81;5036018;28;20226;-86
2023/05/08 00:05:09;;;;;;;17.27;6.07;;;;;;;15.23;66.47;95329.81;5017211;28;20234;-85
2023/05/08 00:07:36;;;;;;;23.70;7.23;;;;;;;15.19;67.11;95335.75;5032414;28;20235;-85
2023/05/08 00:10:03;;;;;;;20.10;7.43;;;;;;;15.28;66.85;95334.44;5016390;28;20215;-85
2023/05/08 00:12:28;;;;;;;16.27;6.37;;;;;;;15.19;67.95;95330.47;5041072;28;20234;-85
2023/05/08 00:14:53;;;;;;;15.83;6.30;;;;;;;15.00;68.50;95334.09;5018627;28;20223;-86
2023/05/08 00:17:19;;;;;;;11.43;4.90;;;;;;;14.86;70.72;95333.38;5034822;28;20244;-85
2023/05/08 00:19:44;;;;;;;11.13;4.70;;;;;;;14.77;71.70;95340.78;5037873;28;20835;-86
2023/05/08 00:22:10;;;;;;;10.97;4.87;;;;;;;14.83;70.98;95337.25;5015044;28;20296;-87
2023/05/08 00:24:35;;;;;;;10.77;4.63;;;;;;;14.78;71.18;95339.72;5030910;28;20243;-86
2023/05/08 00:27:01;;;;;;;13.27;5.17;;;;;;;14.82;71.65;95343.56;5022961;28;20234;-86
2023/05/08 00:29:27;;;;;;;16.23;5.53;;;;;;;14.81;70.80;95349.03;5046435;28;20226;-85
2023/05/08 00:31:52;;;;;;;10.87;4.90;;;;;;;14.76;71.65;95344.41;5034465;28;20222;-86
2023/05/08 00:34:17;;;;;;;13.80;5.23;;;;;;;14.87;70.27;95352.66;5036272;28;20240;-84
2023/05/08 00:36:43;;;;;;;13.80;5.03;;;;;;;14.81;70.75;95349.84;5040636;28;20226;-87
2023/05/08 00:39:08;;;;;;;11.10;4.20;;;;;;;14.59;71.52;95345.16;5016194;28;20234;-85
2023/05/08 00:41:34;;;;;;;10.60;3.77;;;;;;;14.70;71.13;95341.84;5004540;28;20237;-85
2023/05/08 00:43:59;;;;;;;7.40;3.30;;;;;;;14.59;70.96;95340.69;5040131;28;20249;-84
2023/05/08 00:46:25;;;;;;;6.90;3.40;;;;;;;14.69;71.70;95341.03;5018758;28;20549;-84
2023/05/08 00:48:50;;;;;;;6.07;3.03;;;;;;;14.61;71.84;95343.94;5010252;28;20221;-85
2023/05/08 00:51:16;;;;;;;7.07;3.40;;;;;;;14.58;71.98;95349.63;5018753;28;20223;-83
2023/05/08 00:53:42;;;;;;;4.33;3.10;;;;;;;14.46;72.18;95353.97;4994991;28;20226;-85
2023/05/08 00:56:09;;;;;;;7.50;3.20;;;;;;;14.49;71.71;95353.53;5003026;28;20634;-86
2023/05/08 00:58:35;;;;;;;6.63;3.10;;;;;;;14.37;71.80;95351.78;5016655;28;20301;-85
2023/05/08 01:01:00;;;;;;;8.90;3.40;;;;;;;14.34;72.21;95350.38;5006766;28;20234;-85
2023/05/08 01:03:26;;;;;;;7.50;3.37;;;;;;;14.37;72.68;95355.25;5025982;28;20227;-84
2023/05/08 01:05:51;;;;;;;8.13;3.50;;;;;;;14.28;72.72;95360.94;5033958;28;20222;-85
2023/05/08 01:08:17;;;;;;;6.50;3.50;;;;;;;14.40;72.97;95360.06;5028230;28;20225;-84
2023/05/08 01:11:04;;;;;;;5.27;3.30;;;;;;;14.30;73.29;95358.91;5029993;28;20238;-84
2023/05/08 01:13:51;;;;;;;6.60;3.30;;;;;;;14.23;74.05;95360.75;5033271;28;20230;-84
2023/05/08 01:16:21;;;;;;;6.20;3.40;;;;;;;14.18;74.03;95358.75;5044297;28;20238;-83
2023/05/08 01:18:52;;;;;;;5.90;3.30;;;;;;;14.16;74.62;95366.06;5007348;28;20284;-85
2023/05/08 01:21:31;;;;;;;6.90;3.43;;;;;;;14.03;75.14;95371.38;5020769;28;20230;-85
2023/05/08 01:24:06;;;;;;;7.80;3.40;;;;;;;13.89;75.72;95367.19;5034832;28;20243;-82
2023/05/08 01:26:56;;;;;;;6.93;3.40;;;;;;;13.89;75.98;95367.19;5038615;28;20239;-85
2023/05/08 01:29:40;;;;;;;5.87;3.40;;;;;;;13.91;76.18;95362.53;5034233;28;20253;-85
2023/05/08 01:32:18;;;;;;;7.47;3.50;;;;;;;13.70;77.14;95360.19;5037132;28;20238;-85
2023/05/08 01:35:08;;;;;;;6.20;3.50;;;;;;;13.66;77.22;95354.50;5031081;28;20230;-86
2023/05/08 01:37:41;;;;;;;8.77;3.57;;;;;;;13.66;76.74;95351.88;5036119;28;20234;-86
2023/05/08 01:40:14;;;;;;;6.30;3.40;;;;;;;13.70;76.06;95352.28;5023221;28;20226;-86
2023/05/08 01:42:43;;;;;;;6.10;3.50;;;;;;;13.87;76.07;95350.81;5015545;28;20233;-86
2023/05/08 01:45:20;;;;;;;5.03;3.53;;;;;;;13.89;74.97;95354.84;5031455;28;20231;-85
2023/05/08 01:47:49;;;;;;;5.93;3.60;;;;;;;13.89;74.88;95352.22;5026625;28;20226;-86
2023/05/08 01:50:23;;;;;;;7.30;3.60;;;;;;;14.00;75.75;95356.81;5053207;28;20297;-85
2023/05/08 01:52:50;;;;;;;6.87;3.80;;;;;;;14.04;75.18;95349.31;5035126;28;20229;-86
2023/05/08 01:55:19;;;;;;;8.13;3.70;;;;;;;14.07;75.31;95344.44;5006321;28;20249;-83
2023/05/08 01:57:48;;;;;;;6.37;3.73;;;;;;;13.86;77.11;95339.47;5033198;28;20227;-86
2023/05/08 02:00:14;;;;;;;4.90;3.40;;;;;;;13.64;77.76;95345.22;5045357;28;20257;-85
2023/05/08 02:02:40;;;;;;;8.13;3.60;;;;;;;13.70;78.51;95344.41;5019435;28;20222;-84
2023/05/08 02:05:06;;;;;;;7.30;3.77;;;;;;;13.61;78.53;95345.66;5019101;28;20300;-85
2023/05/08 02:07:32;;;;;;;4.03;3.30;;;;;;;13.55;78.78;95349.09;5019175;28;20235;-84
2023/05/08 02:09:58;;;;;;;7.10;3.83;;;;;;;13.50;79.23;95355.78;5015277;28;20306;-85
2023/05/08 02:12:24;;;;;;;7.43;3.77;;;;;;;13.55;79.74;95351.72;5028429;28;20597;-86
2023/05/08 02:14:49;;;;;;;8.73;3.70;;;;;;;13.52;79.55;95342.41;5018025;28;20233;-85
2023/05/08 02:17:15;;;;;;;7.40;3.93;;;;;;;13.51;80.11;95346.06;4998751;28;20298;-86
2023/05/08 02:19:40;;;;;;;6.90;3.73;;;;;;;13.49;79.86;95354.16;5019319;28;20295;-85
2023/05/08 02:22:06;;;;;;;8.27;3.63;;;;;;;13.52;80.18;95354.78;5043252;28;20226;-85
2023/05/08 02:24:33;;;;;;;7.10;3.60;;;;;;;13.44;79.80;95350.56;5013034;28;20275;-84
2023/05/08 02:26:58;;;;;;;6.90;3.70;;;;;;;13.33;80.06;95348.53;5016627;28;20233;-83
2023/05/08 02:29:24;;;;;;;8.43;3.70;;;;;;;13.43;80.34;95355.00;5023553;28;20230;-85
2023/05/08 02:31:49;;;;;;;8.33;3.80;;;;;;;13.22;81.19;95351.81;5025505;28;20288;-85
2023/05/08 02:34:15;;;;;;;10.43;4.03;;;;;;;13.54;80.42;95350.13;5024778;28;20248;-87
2023/05/08 02:36:40;;;;;;;5.73;3.70;;;;;;;13.32;80.32;95345.13;5016585;28;20238;-86
2023/05/08 02:39:06;;;;;;;8.13;3.80;;;;;;;13.32;80.63;95360.06;5026980;28;20229;-85
2023/05/08 02:41:31;;;;;;;5.60;3.67;;;;;;;13.18;82.10;95355.84;5002369;28;20239;-86
2023/05/08 02:43:57;;;;;;;8.27;4.00;;;;;;;13.15;82.02;95358.88;5045070;28;20234;-82
2023/05/08 02:46:56;;;;;;;11.67;4.07;;;;;;;12.99;82.53;95351.41;5018116;28;20226;-84
2023/05/08 02:49:50;;;;;;;7.03;4.00;;;;;;;13.12;82.07;95359.28;5036246;28;20215;-83
2023/05/08 02:52:21;;;;;;;6.97;4.20;;;;;;;13.15;81.42;95359.69;5038324;28;20292;-84
2023/05/08 02:55:02;;;;;;;8.17;3.93;;;;;;;13.14;81.62;95360.69;5026254;28;20222;-85
2023/05/08 02:57:46;;;;;;;10.90;4.37;;;;;;;13.24;81.34;95368.16;5017084;28;20226;-87
2023/05/08 03:00:17;;;;;;;11.80;4.40;;;;;;;13.29;81.48;95363.94;5030997;28;20764;-80
2023/05/08 03:02:46;;;;;;;12.37;4.33;;;;;;;13.38;81.55;95361.88;5015775;28;20235;-87
2023/05/08 03:05:16;;;;;;;8.00;4.63;;;;;;;13.18;82.07;95364.53;5006980;28;20222;-83
2023/05/08 03:07:42;;;;;;;10.63;4.47;;;;;;;13.07;82.84;95365.16;5027029;28;20238;-87
2023/05/08 03:10:11;;;;;;;9.17;4.60;;;;;;;13.09;82.61;95363.13;5032983;28;20247;-87
2023/05/08 03:12:39;;;;;;;7.47;4.50;;;;;;;13.05;83.70;95358.47;5017692;28;20242;-83
2023/05/08 03:15:18;;;;;;;8.00;4.73;;;;;;;13.05;82.88;95359.28;5013693;28;20223;-88
2023/05/08 03:17:44;;;;;;;7.50;4.60;;;;;;;12.97;82.58;95367.34;5021911;28;20234;-87
2023/05/08 03:20:11;;;;;;;8.07;4.90;;;;;;;12.89;82.41;95364.94;5031833;28;20230;-87
2023/05/08 03:22:36;;;;;;;6.73;4.57;;;;;;;13.06;81.01;95368.00;5049897;28;20233;-87
2023/05/08 03:25:03;;;;;;;9.47;4.87;;;;;;;13.17;81.21;95373.44;5046998;28;20235;-88
2023/05/08 03:27:29;;;;;;;9.20;4.60;;;;;;;13.18;81.40;95375.03;5028826;28;20254;-88
2023/05/08 03:29:55;;;;;;;10.57;4.90;;;;;;;13.15;81.44;95367.59;5040463;28;20230;-88
2023/05/08 03:32:20;;;;;;;11.40;5.40;;;;;;;13.14;81.87;95379.09;5021927;28;20325;-87
2023/05/08 03:34:46;;;;;;;11.10;5.00;;;;;;;13.35;81.58;95381.50;5007149;28;20277;-87
2023/05/08 03:37:12;;;;;;;11.40;5.30;;;;;;;13.05;82.62;95377.66;5037315;28;20318;-85
2023/05/08 03:39:37;;;;;;;13.97;5.63;;;;;;;13.03;83.16;95379.69;5008161;28;20234;-86
2023/05/08 03:42:03;;;;;;;8.57;5.37;;;;;;;13.16;82.88;95376.28;5042653;28;20226;-88
2023/05/08 03:44:28;;;;;;;10.60;5.27;;;;;;;13.31;82.15;95376.84;5023250;28;20256;-88
2023/05/08 03:46:54;;;;;;;9.93;5.60;;;;;;;13.19;81.66;95374.03;4997328;28;20281;-88
2023/05/08 03:49:20;;;;;;;10.60;5.53;;;;;;;13.11;82.81;95374.25;5002279;28;20260;-89
2023/05/08 03:51:46;;;;;;;11.10;5.27;;;;;;;13.26;82.48;95374.84;5029588;28;20226;-89
2023/05/08 03:54:11;;;;;;;10.30;5.80;;;;;;;13.17;82.34;95376.06;5001769;28;20233;-81
2023/05/08 03:56:37;;;;;;;13.47;5.83;;;;;;;13.42;80.97;95384.91;5020416;28;20290;-87
2023/05/08 03:59:10;;;;;;;11.23;5.47;;;;;;;13.60;80.97;95384.28;5048473;28;20241;-89
2023/05/08 04:01:39;;;;;;;9.30;5.57;;;;;;;13.66;81.05;95387.91;5029562;28;20219;-89
2023/05/08 04:04:16;;;;;;;9.43;5.60;;;;;;;13.61;81.13;95385.91;5044489;28;20256;-88
2023/05/08 04:07:03;;;;;;;8.90;5.47;;;;;;;13.60;80.45;95391.34;5048687;28;20213;-89
2023/05/08 04:09:38;;;;;;;10.90;5.30;;;;;;;13.61;80.13;95390.34;5039005;28;20249;-88
2023/05/08 04:12:44;;;;;;;7.57;4.90;;;;;;;13.81;78.59;95394.53;5038576;28;20237;-87
2023/05/08 04:15:19;;;;;;;9.13;5.00;;;;;;;13.85;78.61;95387.84;4991587;28;20713;-88
2023/05/08 04:17:48;;;;;;;8.30;5.00;;;;;;;13.98;78.42;95394.88;5012456;28;20222;-88
2023/05/08 04:20:16;;;;;;;10.20;4.83;;;;;;;14.10;77.30;95401.94;5011967;28;20242;-86
2023/05/08 04:22:41;;;;;;;8.33;4.70;;;;;;;14.06;77.44;95402.56;5015408;28;20230;-88
2023/05/08 04:25:07;;;;;;;11.20;5.20;;;;;;;13.90;78.55;95403.03;5022755;28;20667;-88
2023/05/08 04:27:33;;;;;;;10.57;4.83;;;;;;;13.60;79.94;95400.06;5004304;28;20321;-87
2023/05/08 04:29:59;;;;;;;7.43;4.70;;;;;;;13.88;79.03;95399.75;5013962;28;20256;-87
2023/05/08 04:32:24;;;;;;;9.63;5.30;;;;;;;13.81;79.27;95407.69;5036098;28;20445;-88
2023/05/08 04:34:50;;;;;;;9.20;5.27;;;;;;;13.94;79.42;95401.59;5020589;28;20261;-88
2023/05/08 04:37:25;;;;;;;9.40;4.60;;;;;;;13.86;77.05;95405.25;5018406;28;20241;-88
2023/05/08 04:39:51;;;;;;;6.97;4.70;;;;;;;14.07;76.24;95401.50;5034756;28;20286;-88
2023/05/08 04:42:16;;;;;;;9.23;4.40;;;;;;;13.98;75.55;95395.69;5035157;28;20235;-85
2023/05/08 04:44:42;;;;;;;8.77;4.97;;;;;;;14.13;75.47;95403.34;5019288;28;20226;-88
2023/05/08 04:47:07;;;;;;;9.13;4.70;;;;;;;14.13;75.13;95393.63;5001806;28;20241;-87
2023/05/08 04:49:33;;;;;;;9.27;5.10;;;;;;;14.23;75.12;95387.91;5026738;28;20454;-88
2023/05/08 04:51:58;;;;;;;12.33;4.90;;;;;;;14.42;75.05;95387.03;5043487;28;20222;-88
2023/05/08 04:54:23;;;;;;;9.40;4.97;;;;;;;14.67;73.90;95385.22;5013347;28;20237;-87
2023/05/08 04:56:49;;;;;;;14.50;5.30;;;;;;;14.64;73.70;95385.63;5014576;28;20249;-86
2023/05/08 04:59:14;;;;;;;9.27;5.53;;;;;;;14.39;73.44;95391.88;5027676;28;20214;-87
2023/05/08 05:01:40;;;;;;;9.83;5.60;;;;;;;14.61;73.40;95395.81;5015702;28;20258;-88
2023/05/08 05:04:06;;;;;;;12.03;5.57;;;;;;;14.99;72.64;95390.47;5012578;28;20246;-88
2023/05/08 05:06:32;;;;;;;11.90;5.57;;;;;;;16.23;67.43;95385.75;5048035;28;20234;-86
2023/05/08 05:08:57;;;;;;;11.03;5.53;;;;;;;16.45;65.65;95384.25;5010184;28;20223;-87
2023/05/08 05:11:23;;;;;;;10.17;5.70;;;;;;;16.98;62.78;95381.69;5019413;28;20238;-88
2023/05/08 05:13:48;;;;;;;11.93;5.50;;;;;;;16.27;66.21;95381.63;5029563;28;20222;-88
2023/05/08 05:16:14;;;;;;;10.93;5.70;;;;;;;16.73;65.61;95376.56;5046537;28;20221;-88
2023/05/08 05:18:39;;;;;;;13.03;6.00;;;;;;;16.84;64.73;95378.41;5037399;28;20221;-87
2023/05/08 05:21:05;;;;;;;13.17;6.27;;;;;;;17.30;63.47;95380.31;5033837;28;20231;-88
2023/05/08 05:23:30;;;;;;;15.20;6.47;;;;;;;17.64;61.29;95381.38;5009353;28;20241;-86
2023/05/08 05:25:56;;;;;;;13.10;7.17;;;;;;;17.13;63.00;95376.75;5023917;28;20253;-88
2023/05/08 05:28:21;;;;;;;13.67;7.37;;;;;;;17.47;63.34;95382.06;5030489;28;20258;-81
2023/05/08 05:30:47;;;;;;;16.27;7.27;;;;;;;18.64;59.65;95382.66;5013576;28;20233;-81
2023/05/08 05:33:13;;;;;;;17.07;7.63;;;;;;;17.85;60.15;95386.09;5027408;28;20236;-79
2023/05/08 05:35:38;;;;;;;16.47;7.77;;;;;;;16.99;63.28;95385.94;5009709;28;20226;-81
2023/05/08 05:38:04;;;;;;;12.10;6.63;;;;;;;16.59;64.38;95381.25;5033437;28;20237;-80
2023/05/08 05:40:30;;;;;;;15.87;7.40;;;;;;;16.79;64.19;95383.56;5024799;28;20579;-80
2023/05/08 05:42:55;;;;;;;13.80;7.20;;;;;;;16.91;63.93;95383.63;5022984;28;20253;-80
2023/05/08 05:45:20;;;;;;;15.37;7.67;;;;;;;17.11;63.22;95378.81;5019839;28;20269;-80
2023/05/08 05:47:52;;;;;;;16.47;7.60;;;;;;;17.18;63.47;95377.69;4999134;28;20221;-81
2023/05/08 05:50:18;;;;;;;16.30;7.53;;;;;;;17.60;62.12;95381.03;5000889;28;20222;-80
2023/05/08 05:52:44;;;;;;;14.00;7.47;;;;;;;17.83;62.12;95377.56;5013999;28;20233;-80
2023/05/08 05:55:09;;;;;;;23.00;8.00;;;;;;;17.61;60.85;95380.00;4993562;28;20234;-80
2023/05/08 05:57:35;;;;;;;15.60;7.57;;;;;;;17.17;63.04;95383.22;5017111;28;20230;-80
2023/05/08 06:00:01;;;;;;;17.43;7.20;;;;;;;17.75;62.99;95376.09;5036810;28;20227;-81
2023/05/08 06:02:26;;;;;;;19.60;7.10;;;;;;;18.07;62.23;95373.84;5020002;28;20231;-79
2023/05/08 06:04:52;;;;;;;11.50;7.20;;;;;;;18.15;60.20;95371.63;5031044;28;20235;-80
2023/05/08 06:07:19;;;;;;;15.10;7.23;;;;;;;17.18;61.44;95369.75;5019511;28;20230;-78
2023/05/08 06:09:45;;;;;;;17.83;7.70;;;;;;;17.09;62.61;95367.66;5026273;28;20229;-80
2023/05/08 06:12:11;;;;;;;14.83;7.50;;;;;;;17.01;64.40;95363.50;5031078;28;20234;-78
2023/05/08 06:14:36;;;;;;;13.20;7.10;;;;;;;17.20;64.07;95362.38;5003815;28;20222;-80
2023/05/08 06:17:02;;;;;;;14.47;7.20;;;;;;;17.35;63.04;95360.09;5033563;28;20238;-79
2023/05/08 06:19:27;;;;;;;17.87;7.80;;;;;;;17.46;63.85;95359.28;5006951;28;20223;-79
2023/05/08 06:21:53;;;;;;;15.70;7.80;;;;;;;17.56;64.56;95363.19;4995859;28;20230;-80
2023/05/08 06:24:18;;;;;;;17.07;7.83;;;;;;;17.48;64.09;95359.06;5027728;28;20619;-80
2023/05/08 06:26:45;;;;;;;17.47;8.13;;;;;;;17.43;63.45;95359.72;5015745;28;20227;-79
2023/05/08 06:29:11;;;;;;;15.37;7.60;;;;;;;17.12;62.49;95360.09;5005501;28;20242;-75
2023/05/08 06:31:36;;;;;;;17.83;7.57;;;;;;;17.28;63.59;95361.22;4999945;28;20230;-79
2023/05/08 06:34:02;;;;;;;20.23;7.27;;;;;;;17.41;61.43;95361.03;5019093;28;20222;-80
2023/05/08 06:36:27;;;;;;;15.60;7.40;;;;;;;17.24;62.98;95363.53;4996390;28;20233;-81
2023/05/08 06:38:52;;;;;;;16.90;7.47;;;;;;;16.94;62.66;95368.09;5016520;28;20314;-80
2023/05/08 06:41:18;;;;;;;17.83;7.53;;;;;;;17.06;63.91;95366.28;5031468;28;20269;-81
2023/05/08 06:43:43;;;;;;;14.57;7.47;;;;;;;17.60;62.67;95367.81;5031681;28;20219;-81
2023/05/08 06:46:09;;;;;;;14.57;7.37;;;;;;;17.94;60.78;95366.13;4997056;28;20223;-80
2023/05/08 06:48:35;;;;;;;17.20;7.73;;;;;;;17.85;60.13;95362.25;4996067;28;20240;-79
2023/05/08 06:51:01;;;;;;;16.60;7.30;;;;;;;17.72;61.99;95371.25;5021433;28;20238;-79
2023/05/08 06:53:26;;;;;;;18.97;7.70;;;;;;;17.44;61.25;95369.28;5023155;28;20223;-79
2023/05/08 06:55:52;;;;;;;14.87;7.30;;;;;;;17.43;61.20;95354.44;5031768;28;20611;-80
2023/05/08 06:58:17;;;;;;;15.70;7.03;;;;;;;17.70;61.24;95361.91;5024993;28;20238;-81
2023/05/08 07:00:43;;;;;;;11.87;6.80;;;;;;;17.85;60.69;95359.59;5018116;28;20583;-81
2023/05/08 07:03:08;;;;;;;19.53;7.30;;;;;;;17.65;62.81;95369.78;5026849;28;20428;-81
2023/05/08 07:05:34;;;;;;;11.67;6.80;;;;;;;17.91;61.03;95370.06;5037629;28;20230;-81
2023/05/08 07:07:59;;;;;;;15.97;7.27;;;;;;;17.93;59.89;95373.31;5014651;28;20250;-80
2023/05/08 07:10:25;;;;;;;19.83;7.07;;;;;;;17.71;63.19;95379.44;5030988;28;20231;-80
2023/05/08 07:12:50;;;;;;;12.73;6.70;;;;;;;17.82;61.84;95368.81;5042062;28;20238;-82
2023/05/08 07:15:16;;;;;;;15.73;6.60;;;;;;;17.85;61.15;95376.31;5000430;28;20230;-80
2023/05/08 07:17:41;;;;;;;15.27;7.43;;;;;;;17.79;60.26;95376.44;5015869;28;20248;-80
2023/05/08 07:20:07;;;;;;;12.90;6.40;;;;;;;18.05;61.53;95378.56;5030543;28;20261;-80
2023/05/08 07:22:33;;;;;;;13.73;6.83;;;;;;;18.09;62.71;95377.88;5030463;28;20231;-80
2023/05/08 07:24:59;;;;;;;12.80;6.60;;;;;;;17.94;62.10;95371.44;5012426;28;20234;-80
2023/05/08 07:27:24;;;;;;;11.53;6.90;;;;;;;17.62;61.53;95370.22;5012537;28;20245;-78
2023/05/08 07:29:49;;;;;;;12.07;7.10;;;;;;;17.82;61.19;95365.34;5020021;28;20226;-81
2023/05/08 07:32:15;;;;;;;13.13;6.57;;;;;;;18.02;61.84;95366.59;5024341;28;20276;-80
2023/05/08 07:34:41;;;;;;;15.00;7.00;;;;;;;18.20;60.42;95368.25;5032658;28;20218;-81
2023/05/08 07:37:07;;;;;;;13.97;6.60;;;;;;;18.34;62.84;95369.59;4999690;28;20235;-80
2023/05/08 07:39:33;;;;;;;13.33;7.63;;;;;;;18.35;59.32;95370.41;4995299;28;20233;-81
2023/05/08 07:41:58;;;;;;;14.03;7.03;;;;;;;18.40;60.07;95371.31;5037704;28;20223;-79
2023/05/08 07:44:24;;;;;;;17.63;7.43;;;;;;;18.47;58.51;95371.19;5018812;28;20266;-80
2023/05/08 07:46:49;;;;;;;14.17;7.47;;;;;;;18.57;58.99;95374.84;5011599;28;20227;-82
2023/05/08 07:49:15;;;;;;;15.03;8.00;;;;;;;18.27;59.89;95376.88;5013049;28;20233;-79
2023/05/08 07:51:41;;;;;;;14.20;6.80;;;;;;;18.67;58.93;95377.69;4997804;28;20231;-79
2023/05/08 07:54:06;;;;;;;14.50;7.20;;;;;;;18.72;57.88;95376.97;5020955;28;20696;-80
2023/05/08 07:56:31;;;;;;;13.03;7.63;;;;;;;18.62;56.82;95380.25;5036661;28;20234;-81
2023/05/08 07:58:57;;;;;;;14.23;7.40;;;;;;;18.90;55.55;95375.94;5031504;28;20788;-78
2023/05/08 08:01:22;;;;;;;14.63;7.10;;;;;;;19.37;55.94;95377.25;5011436;28;20238;-80
2023/05/08 08:03:48;;;;;;;11.47;6.33;;;;;;;19.49;54.97;95377.97;5008011;28;20230;-80
2023/05/08 08:06:13;;;;;;;13.93;6.37;;;;;;;19.72;54.08;95376.97;5026857;28;20248;-81
2023/05/08 08:08:41;;;;;;;11.57;5.87;;;;;;;19.60;55.28;95371.78;5039994;28;20227;-80
2023/05/08 08:11:06;;;;;;;10.23;6.00;;;;;;;19.43;56.86;95385.06;5032330;28;20308;-81
2023/05/08 08:13:32;;;;;;;12.37;6.53;;;;;;;19.38;55.31;95377.03;5031896;28;20226;-80
2023/05/08 08:15:58;;;;;;;13.93;6.30;;;;;;;19.61;55.74;95375.25;5039271;28;20230;-80
2023/05/08 08:18:24;;;;;;;10.57;5.90;;;;;;;19.99;55.01;95378.66;5016066;28;20250;-82
2023/05/08 08:20:50;;;;;;;14.33;5.67;;;;;;;20.18;54.23;95382.63;5014891;28;20226;-82
2023/05/08 08:23:15;;;;;;;10.37;5.90;;;;;;;20.31;54.26;95376.16;5035183;28;20692;-83
2023/05/08 08:25:41;;;;;;;14.73;6.20;;;;;;;19.87;54.84;95382.50;5013392;28;20287;-79
2023/05/08 08:28:06;;;;;;;12.23;5.97;;;;;;;19.75;57.06;95377.28;5012783;28;20234;-81
2023/05/08 08:30:32;;;;;;;10.00;5.60;;;;;;;19.94;57.09;95373.28;5012462;28;20232;-81
2023/05/08 08:33:00;;;;;;;7.33;5.80;;;;;;;20.12;55.34;95369.53;5027647;28;20238;-82
2023/05/08 08:35:29;;;;;;;11.27;6.30;;;;;;;20.02;55.44;95370.22;5010580;28;20300;-81
2023/05/08 08:37:55;;;;;;;14.07;6.13;;;;;;;20.04;55.67;95362.78;5006252;28;20231;-80
2023/05/08 08:40:21;;;;;;;13.87;5.83;;;;;;;20.22;55.23;95364.38;5018460;28;20256;-80
2023/05/08 08:42:46;;;;;;;17.50;6.00;;;;;;;20.27;54.96;95358.31;5042757;28;20245;-81
2023/05/08 08:45:12;;;;;;;10.73;5.50;;;;;;;20.21;56.41;95356.59;5011751;28;20238;-80
2023/05/08 08:47:40;;;;;;;10.40;5.70;;;;;;;19.91;56.37;95347.22;5026898;28;20235;-79
2023/05/08 08:50:06;;;;;;;8.90;5.50;;;;;;;19.97;57.24;95343.56;5007343;28;20223;-81
2023/05/08 08:52:54;;;;;;;12.67;5.40;;;;;;;19.84;57.91;95341.28;5002299;28;20314;-81
2023/05/08 08:55:20;;;;;;;9.57;5.60;;;;;;;20.01;57.38;95339.34;5010175;28;20219;-80
2023/05/08 08:58:12;;;;;;;8.87;5.37;;;;;;;20.04;57.57;95338.06;5013739;28;20244;-81
2023/05/08 09:00:37;;;;;;;9.90;5.70;;;;;;;20.08;57.96;95326.69;5015789;28;20230;-81
2023/05/08 09:03:04;;;;;;;9.93;5.77;;;;;;;19.88;58.00;95331.78;5024538;28;20294;-80
2023/05/08 09:05:30;;;;;;;9.47;5.17;;;;;;;19.65;57.95;95325.88;5002448;28;20681;-80
2023/05/08 09:07:56;;;;;;;11.73;5.33;;;;;;;19.78;60.49;95315.69;5036666;28;20233;-81
2023/05/08 09:10:22;;;;;;;8.30;5.20;;;;;;;19.65;59.20;95313.41;5012921;28;20236;-78
2023/05/08 09:12:48;;;;;;;11.90;5.47;;;;;;;19.59;58.96;95319.69;5014597;28;20245;-82
2023/05/08 09:15:14;;;;;;;9.93;5.43;;;;;;;19.70;58.39;95315.34;5009537;28;20222;-80
2023/05/08 09:17:39;;;;;;;10.50;5.70;;;;;;;19.70;58.41;95308.16;5013106;28;20234;-81
2023/05/08 09:20:06;;;;;;;11.43;5.83;;;;;;;19.71;58.59;95301.78;5022363;28;20236;-79
2023/05/08 09:22:31;;;;;;;11.63;5.87;;;;;;;19.63;60.36;95296.13;5029732;28;20269;-80
2023/05/08 09:24:58;;;;;;;11.47;5.87;;;;;;;19.54;59.89;95287.75;5015020;28;20242;-81
2023/05/08 09:27:24;;;;;;;13.40;5.90;;;;;;;19.67;59.51;95286.59;4999325;28;20261;-81
2023/05/08 09:30:02;;;;;;;15.37;6.03;;;;;;;19.66;60.10;95285.78;5015791;28;20226;-79
2023/05/08 09:32:29;;;;;;;13.27;5.90;;;;;;;19.80;61.44;95284.38;5028165;28;20241;-79
2023/05/08 09:34:55;;;;;;;14.93;6.40;;;;;;;19.75;60.43;95288.84;5025404;28;20219;-80
2023/05/08 09:37:21;;;;;;;13.30;6.57;;;;;;;19.78;60.58;95297.09;5010379;28;20245;-80
2023/05/08 09:39:46;;;;;;;11.70;6.87;;;;;;;19.89;61.11;95292.72;5033256;28;20227;-81
2023/05/08 09:42:12;;;;;;;16.30;6.50;;;;;;;20.00;64.22;95300.56;5016593;28;20268;-78
2023/05/08 09:44:46;;;;;;;12.97;6.50;;;;;;;19.89;60.82;95308.66;5016773;28;20232;-79
2023/05/08 09:47:17;;;;;;;13.40;6.87;;;;;;;19.93;60.81;95299.94;5030899;28;20233;-83
2023/05/08 09:50:03;;;;;;;12.27;6.30;;;;;;;19.93;60.31;95312.44;5015468;28;20223;-87
2023/05/08 09:52:29;;;;;;;11.30;5.60;;;;;;;19.81;60.48;95307.25;5041219;28;20238;-86
2023/05/08 09:55:08;;;;;;;11.27;5.93;;;;;;;19.83;60.25;95315.75;5023755;28;20229;-82
2023/05/08 09:57:37;;;;;;;9.70;5.47;;;;;;;19.96;59.45;95306.63;5015347;28;20375;-88
2023/05/08 10:00:09;;;;;;;8.13;5.77;;;;;;;20.13;58.79;95307.34;5016985;28;20273;-86
2023/05/08 10:02:35;;;;;;;10.43;6.00;;;;;;;20.24;59.66;95305.63;5045925;28;20288;-88
2023/05/08 10:05:03;;;;;;;8.10;5.40;;;;;;;20.47;58.70;95294.69;5019503;28;20226;-88
2023/05/08 10:07:35;;;;;;;9.17;5.53;;;;;;;20.54;57.80;95297.97;5020835;28;20592;-86
2023/05/08 10:10:04;;;;;;;8.10;5.37;;;;;;;20.70;58.80;95300.53;5024075;28;20231;-86
2023/05/08 10:12:30;;;;;;;11.37;5.47;;;;;;;20.74;57.55;95300.81;5042306;28;20226;-86
2023/05/08 10:14:55;;;;;;;10.00;5.50;;;;;;;20.74;56.97;95298.94;5036349;28;20229;-86
2023/05/08 10:17:26;;;;;;;11.27;5.50;;;;;;;20.76;58.55;95294.19;5037689;28;20234;-85
2023/05/08 10:19:55;;;;;;;7.70;5.40;;;;;;;20.69;59.55;95292.78;5004186;28;20873;-88
2023/05/08 10:22:21;;;;;;;11.03;5.90;;;;;;;20.74;57.78;95290.97;5014794;28;20231;-86
2023/05/08 10:24:46;;;;;;;9.13;5.40;;;;;;;20.82;58.45;95290.47;5015046;28;20333;-85
2023/05/08 10:27:41;;;;;;;11.87;5.57;;;;;;;20.96;58.78;95282.09;5042154;28;20230;-84
2023/05/08 10:30:06;;;;;;;10.67;5.87;;;;;;;20.86;58.33;95274.81;5024100;28;20242;-86
2023/05/08 10:32:37;;;;;;;10.17;6.10;;;;;;;20.73;58.67;95278.72;5043115;28;20234;-84
2023/05/08 10:35:03;;;;;;;10.80;5.80;;;;;;;21.01;57.70;95272.28;5038062;28;20230;-83
2023/05/08 10:37:29;;;;;;;7.80;5.63;;;;;;;21.06;58.16;95266.22;5034209;28;20221;-81
2023/05/08 10:39:54;;;;;;;10.60;6.10;;;;;;;21.28;59.14;95274.91;5029310;28;20262;-86
2023/05/08 10:42:22;;;;;;;12.40;6.00;;;;;;;21.41;58.85;95279.75;5023304;28;20246;-88
2023/05/08 10:44:48;;;;;;;9.73;5.83;;;;;;;21.42;57.54;95273.38;5022702;28;20253;-86
2023/05/08 10:47:39;;;;;;;10.60;6.03;;;;;;;21.55;56.77;95264.91;5049317;28;20238;-86
2023/05/08 10:50:35;;;;;;;10.30;6.00;;;;;;;21.33;56.68;95267.72;5037199;28;20231;-87
2023/05/08 10:53:10;;;;;;;9.67;5.90;;;;;;;21.21;56.58;95264.44;5019829;28;20241;-84
2023/05/08 10:55:40;;;;;;;9.07;5.40;;;;;;;21.62;55.79;95254.00;5038289;28;20237;-85
2023/05/08 10:58:09;;;;;;;11.57;5.80;;;;;;;21.63;55.05;95252.97;5007412;28;20238;-84
2023/05/08 11:00:58;;;;;;;10.97;5.73;;;;;;;21.44;56.04;95258.75;5039962;28;20703;-82
2023/05/08 11:03:24;;;;;;;9.20;6.00;;;;;;;21.53;55.96;95253.72;5048332;28;20231;-85
2023/05/08 11:05:50;;;;;;;10.47;5.33;;;;;;;22.10;56.35;95256.38;5000346;28;20238;-90
2023/05/08 11:08:17;;;;;;;11.20;5.70;;;;;;;22.27;53.14;95245.47;5015665;28;20244;-84
2023/05/08 11:10:52;;;;;;;9.53;5.70;;;;;;;22.16;53.64;95250.00;5045644;28;20230;-89
2023/05/08 11:13:18;;;;;;;10.23;5.97;;;;;;;22.32;54.48;95240.94;5027697;28;20233;-84
2023/05/08 11:15:48;;;;;;;13.67;5.67;;;;;;;22.16;53.07;95243.84;5031518;28;20234;-82
2023/05/08 11:18:15;;;;;;;10.70;6.13;;;;;;;22.35;52.25;95221.75;5022527;28;20234;-86
2023/05/08 11:20:41;;;;;;;10.60;5.73;;;;;;;22.58;52.08;95220.44;5040588;28;20245;-85
2023/05/08 11:23:26;;;;;;;11.30;5.50;;;;;;;22.76;51.67;95211.91;5036334;28;20226;-84
2023/05/08 11:26:02;;;;;;;10.13;5.63;;;;;;;22.76;51.74;95215.38;5046927;28;20290;-86
2023/05/08 11:28:51;;;;;;;7.70;5.60;;;;;;;22.82;50.95;95204.69;5017751;28;20289;-88
2023/05/08 11:31:17;;;;;;;7.53;5.30;;;;;;;22.73;50.90;95210.59;5038692;28;20226;-85
2023/05/08 11:33:42;;;;;;;8.03;5.20;;;;;;;22.75;50.59;95204.97;5001274;28;20229;-85